Wilson, WI

12:27 AM CDT on October 20, 2014 (GMT -0500)
WIDOT Knapp - I-94 @ CTH Q | Change Station
CLOSE
Current Station
Personal Weather Station
Location: Knapp, WI
Elevation: 1210 ft
Nearby Weather Stations

Elev 1210 ft 44.92 °N, 92.12 °W | Updated 29 minutes ago

Clear
Clear
52 °F
Feels Like 52 °F
N
7
Wind Variable Wind from NW
Gusts 12.0 mph

Today
High -- | Low -- °F
--% Chance of Precip.
Yesterday
High -- | Low -- °F
Precip. -- in
7:30 AM 6:15 PM
Waning Crescent, 13% visible
Pressure 29.78 in
Visibility 10.0 miles
Clouds Clear
Dew Point 45 °F
Humidity 75%
Rainfall -999.00 in
Snow Depth Not available.
UV 0 out of 12
Pollen 1.20 out of 12
Ozone Good
PM2.5 Good
Flu Activity Sporadic
METAR KLUM 200310Z AUTO 27006KT 10SM CLR 08/06 A2978 RMK AO2 T00840064

More Conditions Fewer Conditions

Pressure 29.78 in
Visibility 10.0 miles
Clouds Clear
Dew Point 45 °F
Humidity 75%
Rainfall -999.00 in
Snow Depth Not available.
UV 0 out of 12
Pollen 1.20 out of 12
Ozone Good
PM2.5 Good
Flu Activity Sporadic
METAR KLUM 200310Z AUTO 27006KT 10SM CLR 08/06 A2978 RMK AO2 T00840064

More Conditions Fewer Conditions

10-Day Weather Forecast

Almanac

Astronomy

Oct. 20, 2014 Rise Set
Actual Time 7:30 AM CDT 6:15 PM CDT
Civil Twilight 7:01 AM CDT 6:45 PM CDT
Nautical Twilight 6:26 AM CDT 7:19 PM CDT
Astronomical Twilight 5:52 AM CDT 7:53 PM CDT
Moon 4:11 AM CDT 4:45 PM CDT
Length of Visible Light 11h 43m
Length of Day
10h 44m
Waning Crescent, 13% of the Moon is Illuminated
Today
Waning Crescent
Oct 23
New
Oct 30
First Quarter
Nov 6
Full
Nov 14
Last Quarter

Today's Extremes

State Highs State Lows

Community

WunderPhotos

Upload Photos

1,763,313 photos uploaded!

Nearby

Air Quality

  Air Quality AQ Index Pollutant
Yesterday Good
PM2.5
Yesterday Good
OZONE
Current Good
PM2.5
Current Good
OZONE
Sunday Good
PM2.5
Monday Good
PM2.5
Tuesday Good
PM2.5
Wednesday Good
PM2.5
Thursday Good
PM2.5
Friday Moderate
PM2.5

Snow Depth

Station Depth Elevation
No new snow has been reported.

Earthquake Activity

City Distance Mag. Time & Date
No recent earthquake activity has been reported nearby.
Minimum magnitude displayed is 2.5.

Coastal Water Temperatures

Place Temperature
No Stations Reporting

Nearby Weather Stations